Terminal Aerodrome Forecast
Issued by NWS Tuscon, AZ

Home | Current Version | Previous Version | Text Only | Print | Product List | Glossary On
Versions: 1 2 3 4 5 6 7 8 9 10 11 12 13
000
FTUS45 KTWC 302320
TAFDUG
TAF
KDUG 302320Z 3100/3124 10007KT P6SM VCTS SCT050CB BKN100 OVC200
      TEMPO 3100/3102 VRB20G25KT 4SM TSRA SCT025 BKN040CB
     FM310200 07008KT P6SM SCT070 SCT120 BKN200
     FM310600 VRB04KT P6SM FEW120 SCT250
     FM312000 16010KT P6SM VCSH SCT060 BKN150=

USA.gov is the U.S. government's official web portal to all federal, state and local government web resources and services.